createdAt,value
2022-09-28T00:00:30.343Z,9.87
2022-09-28T00:02:57.114Z,9.88
2022-09-28T00:05:26.807Z,9.87
2022-09-28T00:07:54.495Z,9.88
2022-09-28T00:10:21.167Z,9.88
2022-09-28T00:12:47.661Z,9.88
2022-09-28T00:15:14.272Z,9.89
2022-09-28T00:17:40.949Z,9.89
2022-09-28T00:20:08.036Z,9.90
2022-09-28T00:22:35.089Z,9.93
2022-09-28T00:25:01.600Z,9.94
2022-09-28T00:27:28.086Z,9.94
2022-09-28T00:29:54.676Z,9.93
2022-09-28T00:32:21.427Z,9.91
2022-09-28T00:34:48.098Z,9.90
2022-09-28T00:37:15.524Z,9.90
2022-09-28T00:39:42.488Z,9.90
2022-09-28T00:42:16.073Z,9.92
2022-09-28T00:44:53.692Z,9.94
2022-09-28T00:47:46.494Z,9.95
2022-09-28T00:50:17.086Z,9.96
2022-09-28T00:53:04.005Z,9.95
2022-09-28T00:55:37.718Z,9.93
2022-09-28T00:58:08.134Z,9.89
2022-09-28T01:00:35.273Z,9.86
2022-09-28T01:03:03.818Z,9.80
2022-09-28T01:05:30.804Z,9.75
2022-09-28T01:07:57.693Z,9.70
2022-09-28T01:10:25.119Z,9.67
2022-09-28T01:12:51.608Z,9.63
2022-09-28T01:15:20.187Z,9.60
2022-09-28T01:17:46.625Z,9.57
2022-09-28T01:20:33.801Z,9.55
2022-09-28T01:23:31.216Z,9.51
2022-09-28T01:26:33.314Z,9.47
2022-09-28T01:29:06.593Z,9.43
2022-09-28T01:31:36.443Z,9.38
2022-09-28T01:34:13.342Z,9.32
2022-09-28T01:36:48.203Z,9.24
2022-09-28T01:39:20.028Z,9.16
2022-09-28T01:41:50.824Z,9.10
2022-09-28T01:44:21.217Z,9.00
2022-09-28T01:46:50.304Z,8.90
2022-09-28T01:49:41.698Z,8.86
2022-09-28T01:52:38.427Z,8.86
2022-09-28T01:55:20.938Z,8.87
2022-09-28T01:57:56.924Z,8.92
2022-09-28T02:00:25.309Z,8.93
2022-09-28T02:03:11.456Z,8.94
2022-09-28T02:05:40.610Z,8.96
2022-09-28T02:08:26.856Z,9.01
2022-09-28T02:11:03.906Z,9.03
2022-09-28T02:13:37.706Z,9.05
2022-09-28T02:16:13.633Z,9.06
2022-09-28T02:18:40.192Z,9.06
2022-09-28T02:21:13.119Z,9.03
2022-09-28T02:23:44.016Z,8.99
2022-09-28T02:26:14.071Z,8.95
2022-09-28T02:28:40.939Z,8.94
2022-09-28T02:31:07.830Z,8.92
2022-09-28T02:33:38.376Z,8.91
2022-09-28T02:36:05.845Z,8.89
2022-09-28T02:38:33.098Z,8.88
2022-09-28T02:41:31.005Z,8.87
2022-09-28T02:44:10.256Z,8.85
2022-09-28T02:47:08.494Z,8.83
2022-09-28T02:50:10.889Z,8.82
2022-09-28T02:52:53.962Z,8.80
2022-09-28T02:55:35.604Z,8.79
2022-09-28T02:58:21.262Z,8.79
2022-09-28T03:01:16.067Z,8.79
2022-09-28T03:03:54.365Z,8.80
2022-09-28T03:06:37.745Z,8.80
2022-09-28T03:09:13.155Z,8.82
2022-09-28T03:12:03.855Z,8.83
2022-09-28T03:14:30.505Z,8.82
2022-09-28T03:16:56.984Z,8.80
2022-09-28T03:19:33.515Z,8.78
2022-09-28T03:22:00.603Z,8.76
2022-09-28T03:24:27.403Z,8.74
2022-09-28T03:26:54.300Z,8.70
2022-09-28T03:29:20.811Z,8.66
2022-09-28T03:31:47.569Z,8.63
2022-09-28T03:34:14.410Z,8.59
2022-09-28T03:36:40.878Z,8.55
2022-09-28T03:39:07.301Z,8.50
2022-09-28T03:41:33.823Z,8.46
2022-09-28T03:44:00.360Z,8.45
2022-09-28T03:46:27.217Z,8.44
2022-09-28T03:48:57.118Z,8.45
2022-09-28T03:51:23.835Z,8.46
2022-09-28T03:53:50.422Z,8.46
2022-09-28T03:56:17.060Z,8.46
2022-09-28T03:58:43.598Z,8.46
2022-09-28T04:01:16.751Z,8.47
2022-09-28T04:03:44.285Z,8.46
2022-09-28T04:06:11.124Z,8.47
2022-09-28T04:08:37.761Z,8.48
2022-09-28T04:11:04.365Z,8.49
2022-09-28T04:13:31.565Z,8.51
2022-09-28T04:16:00.560Z,8.52
2022-09-28T04:18:27.917Z,8.51
2022-09-28T04:21:05.600Z,8.47
2022-09-28T04:23:33.854Z,8.45
2022-09-28T04:26:00.356Z,8.43
2022-09-28T04:28:27.301Z,8.42
2022-09-28T04:30:54.042Z,8.42
2022-09-28T04:33:20.580Z,8.42
2022-09-28T04:35:47.087Z,8.41
2022-09-28T04:38:13.648Z,8.40
2022-09-28T04:40:40.290Z,8.42
2022-09-28T04:43:06.982Z,8.45
2022-09-28T04:45:33.656Z,8.47
2022-09-28T04:48:00.442Z,8.50
2022-09-28T04:50:26.984Z,8.50
2022-09-28T04:52:53.639Z,8.46
2022-09-28T04:55:20.174Z,8.45
2022-09-28T04:57:46.673Z,8.47
2022-09-28T05:00:14.262Z,8.46
2022-09-28T05:02:40.865Z,8.45
2022-09-28T05:05:08.110Z,8.42
2022-09-28T05:07:34.735Z,8.37
2022-09-28T05:10:01.619Z,8.32
2022-09-28T05:12:28.227Z,8.26
2022-09-28T05:14:54.777Z,8.22
2022-09-28T05:17:21.516Z,8.23
2022-09-28T05:19:48.360Z,8.41
2022-09-28T05:22:14.947Z,8.66
2022-09-28T05:24:41.749Z,8.91
2022-09-28T05:27:08.285Z,9.17
2022-09-28T05:29:35.044Z,9.39
2022-09-28T05:32:01.847Z,9.70
2022-09-28T05:34:29.048Z,10.10
2022-09-28T05:36:55.724Z,10.45
2022-09-28T05:39:22.360Z,10.87
2022-09-28T05:41:48.935Z,11.36
2022-09-28T05:44:15.540Z,11.77
2022-09-28T05:46:42.259Z,12.09
2022-09-28T05:49:08.806Z,12.39
2022-09-28T05:51:35.306Z,12.60
2022-09-28T05:54:13.414Z,12.62
2022-09-28T05:56:40.257Z,12.87
2022-09-28T05:59:06.955Z,13.12
2022-09-28T06:01:33.541Z,13.23
2022-09-28T06:04:00.405Z,13.41
2022-09-28T06:06:26.991Z,13.58
2022-09-28T06:08:53.527Z,13.72
2022-09-28T06:11:20.087Z,13.92
2022-09-28T06:13:46.543Z,14.17
2022-09-28T06:16:16.133Z,14.50
2022-09-28T06:18:42.705Z,14.60
2022-09-28T06:21:09.227Z,14.95
2022-09-28T06:23:35.947Z,15.09
2022-09-28T06:26:02.795Z,15.13
2022-09-28T06:28:29.336Z,15.04
2022-09-28T06:30:55.980Z,15.12
2022-09-28T06:33:22.633Z,15.24
2022-09-28T06:35:49.124Z,15.19
2022-09-28T06:38:16.121Z,14.99
2022-09-28T06:40:42.672Z,14.83
2022-09-28T06:43:14.736Z,14.67
2022-09-28T06:45:43.142Z,14.74
2022-09-28T06:48:11.318Z,14.71
2022-09-28T06:50:40.439Z,14.75
2022-09-28T06:53:10.576Z,14.90
2022-09-28T06:55:45.494Z,15.04
2022-09-28T06:58:14.273Z,15.02
2022-09-28T07:00:41.621Z,15.03
2022-09-28T07:03:13.155Z,15.24
2022-09-28T07:05:51.105Z,15.46
2022-09-28T07:08:18.058Z,15.43
2022-09-28T07:10:49.114Z,15.42
2022-09-28T07:13:45.390Z,15.54
2022-09-28T07:16:03.875Z,15.62
2022-09-28T07:18:30.558Z,15.76
2022-09-28T07:20:58.288Z,15.88
2022-09-28T07:23:26.161Z,15.96
2022-09-28T07:25:53.020Z,16.21
2022-09-28T07:28:19.486Z,16.33
2022-09-28T07:30:46.045Z,16.34
2022-09-28T07:33:14.787Z,16.39
2022-09-28T07:35:41.968Z,16.55
2022-09-28T07:38:10.329Z,16.71
2022-09-28T07:40:37.184Z,16.98
2022-09-28T07:43:05.660Z,17.39
2022-09-28T07:45:32.358Z,17.58
2022-09-28T07:47:59.206Z,17.56
2022-09-28T07:50:25.854Z,17.47
2022-09-28T07:52:52.441Z,17.57
2022-09-28T07:55:19.093Z,17.71
2022-09-28T07:57:45.840Z,17.80
2022-09-28T08:00:13.298Z,18.02
2022-09-28T08:02:40.047Z,18.24
2022-09-28T08:05:07.097Z,18.45
2022-09-28T08:07:33.869Z,18.40
2022-09-28T08:10:00.545Z,18.12
2022-09-28T08:12:26.997Z,17.95
2022-09-28T08:14:53.534Z,17.81
2022-09-28T08:17:21.450Z,17.60
2022-09-28T08:19:47.991Z,17.60
2022-09-28T08:22:15.863Z,17.55
2022-09-28T08:24:42.353Z,17.18
2022-09-28T08:27:09.057Z,16.91
2022-09-28T08:29:36.202Z,16.77
2022-09-28T08:32:07.350Z,16.47
2022-09-28T08:34:38.947Z,16.28
2022-09-28T08:37:06.925Z,16.09
2022-09-28T08:39:33.422Z,15.95
2022-09-28T08:42:05.528Z,16.09
2022-09-28T08:44:48.589Z,16.34
2022-09-28T08:47:25.084Z,16.53
2022-09-28T08:49:51.909Z,16.70
2022-09-28T08:52:26.027Z,16.88
2022-09-28T08:55:02.762Z,17.36
2022-09-28T08:57:43.628Z,17.78
2022-09-28T09:00:17.854Z,18.31
2022-09-28T09:02:44.641Z,18.64
2022-09-28T09:05:14.399Z,18.73
2022-09-28T09:08:05.499Z,18.83
2022-09-28T09:10:53.866Z,18.75
2022-09-28T09:13:54.325Z,18.62
2022-09-28T09:16:36.027Z,18.46
2022-09-28T09:19:16.790Z,18.18
2022-09-28T09:21:48.133Z,17.97
2022-09-28T09:24:27.507Z,17.76
2022-09-28T09:27:18.292Z,17.58
2022-09-28T09:29:56.508Z,17.62
2022-09-28T09:32:41.812Z,17.64
2022-09-28T09:35:25.975Z,17.65
2022-09-28T09:38:18.592Z,17.71
2022-09-28T09:41:06.916Z,17.61
2022-09-28T09:43:55.257Z,17.80
2022-09-28T09:46:32.894Z,17.87
2022-09-28T09:49:14.079Z,18.00
2022-09-28T09:52:01.303Z,18.31
2022-09-28T09:54:37.400Z,18.49
2022-09-28T09:57:20.294Z,18.18
2022-09-28T09:59:48.403Z,17.70
2022-09-28T10:02:17.808Z,17.52
2022-09-28T10:04:48.002Z,17.61
2022-09-28T10:07:29.995Z,17.75
2022-09-28T10:09:58.594Z,17.65
2022-09-28T10:12:26.254Z,17.46
2022-09-28T10:14:53.314Z,17.29
2022-09-28T10:17:20.587Z,17.06
2022-09-28T10:19:47.224Z,16.77
2022-09-28T10:22:20.895Z,16.69
2022-09-28T10:24:50.837Z,16.62
2022-09-28T10:27:22.001Z,16.63
2022-09-28T10:30:17.233Z,16.93
2022-09-28T10:32:46.762Z,17.22
2022-09-28T10:35:19.084Z,17.43
2022-09-28T10:38:07.670Z,17.63
2022-09-28T10:40:45.245Z,17.87
2022-09-28T10:43:28.161Z,18.21
2022-09-28T10:46:12.857Z,18.57
2022-09-28T10:48:54.024Z,19.00
2022-09-28T10:51:39.266Z,19.42
2022-09-28T10:54:06.180Z,19.78
2022-09-28T10:56:37.649Z,19.90
2022-09-28T10:59:24.092Z,19.85
2022-09-28T11:02:22.054Z,19.74
2022-09-28T11:04:58.169Z,19.72
2022-09-28T11:07:30.298Z,19.65
2022-09-28T11:09:56.938Z,19.47
2022-09-28T11:12:43.323Z,19.29
2022-09-28T11:15:19.825Z,19.28
2022-09-28T11:17:47.056Z,18.93
2022-09-28T11:20:27.817Z,18.87
2022-09-28T11:23:14.961Z,18.92
2022-09-28T11:25:42.431Z,18.87
2022-09-28T11:28:22.856Z,18.93
2022-09-28T11:30:54.319Z,18.83
2022-09-28T11:33:35.078Z,18.85
2022-09-28T11:36:34.647Z,18.87
2022-09-28T11:39:23.674Z,18.82
2022-09-28T11:42:16.480Z,18.81
2022-09-28T11:44:48.316Z,18.81
2022-09-28T11:47:42.032Z,18.96
2022-09-28T11:50:47.682Z,19.11
2022-09-28T11:53:20.402Z,19.24
2022-09-28T11:56:08.510Z,19.21
2022-09-28T11:58:42.168Z,19.31
2022-09-28T12:01:18.744Z,19.36
2022-09-28T12:03:53.767Z,19.38
2022-09-28T12:06:28.747Z,19.42
2022-09-28T12:09:03.515Z,19.43
2022-09-28T12:11:39.219Z,19.47
2022-09-28T12:14:20.710Z,19.55
2022-09-28T12:17:07.345Z,19.63
2022-09-28T12:19:40.364Z,19.66
2022-09-28T12:22:37.248Z,19.61
2022-09-28T12:25:10.055Z,19.53
2022-09-28T12:27:45.246Z,19.43
2022-09-28T12:30:21.575Z,19.36
2022-09-28T12:33:04.638Z,19.42
2022-09-28T12:36:00.090Z,19.40
2022-09-28T12:39:17.978Z,19.23
2022-09-28T12:42:21.337Z,19.26
2022-09-28T12:44:59.483Z,19.38
2022-09-28T12:47:45.135Z,19.33
2022-09-28T12:50:56.863Z,19.20
2022-09-28T12:53:36.124Z,19.20
2022-09-28T12:56:18.078Z,19.29
2022-09-28T12:59:09.402Z,19.52
2022-09-28T13:02:01.517Z,19.59
2022-09-28T13:04:49.997Z,19.57
2022-09-28T13:07:36.467Z,19.69
2022-09-28T13:10:30.282Z,19.87
2022-09-28T13:13:44.541Z,19.92
2022-09-28T13:16:23.754Z,20.00
2022-09-28T13:19:19.785Z,20.09
2022-09-28T13:21:52.202Z,20.29
2022-09-28T13:24:33.117Z,20.39
2022-09-28T13:27:06.431Z,20.41
2022-09-28T13:29:34.096Z,20.40
2022-09-28T13:32:02.853Z,20.39
2022-09-28T13:34:33.323Z,20.25
2022-09-28T13:37:15.063Z,20.07
2022-09-28T13:39:44.586Z,19.99
2022-09-28T13:42:31.187Z,19.89
2022-09-28T13:45:22.323Z,19.78
2022-09-28T13:47:51.818Z,19.62
2022-09-28T13:50:52.152Z,19.48
2022-09-28T13:53:52.483Z,19.30
2022-09-28T13:56:37.088Z,19.16
2022-09-28T13:59:10.582Z,19.05
2022-09-28T14:01:39.279Z,18.98
2022-09-28T14:04:17.649Z,18.93
2022-09-28T14:06:55.545Z,18.88
2022-09-28T14:09:25.174Z,19.08
2022-09-28T14:12:03.178Z,19.77
2022-09-28T14:14:51.374Z,20.57
2022-09-28T14:17:20.961Z,20.96
2022-09-28T14:19:55.369Z,20.43
2022-09-28T14:22:40.470Z,19.98
2022-09-28T14:25:44.415Z,19.47
2022-09-28T14:28:48.711Z,19.20
2022-09-28T14:31:27.000Z,18.83
2022-09-28T14:33:56.743Z,18.54
2022-09-28T14:36:27.537Z,18.36
2022-09-28T14:38:54.004Z,18.22
2022-09-28T14:41:43.182Z,18.13
2022-09-28T14:44:11.987Z,18.03
2022-09-28T14:46:41.391Z,17.99
2022-09-28T14:49:17.034Z,17.95
2022-09-28T14:51:47.231Z,17.93
2022-09-28T14:54:25.139Z,17.84
2022-09-28T14:56:54.415Z,17.74
2022-09-28T14:59:26.766Z,17.63
2022-09-28T15:02:13.125Z,17.54
2022-09-28T15:04:48.249Z,17.40
2022-09-28T15:07:49.047Z,17.29
2022-09-28T15:10:27.318Z,17.16
2022-09-28T15:12:55.380Z,17.04
2022-09-28T15:15:31.887Z,16.90
2022-09-28T15:18:30.981Z,16.76
2022-09-28T15:20:57.966Z,16.61
2022-09-28T15:23:26.320Z,16.50
2022-09-28T15:25:54.646Z,16.40
2022-09-28T15:28:23.240Z,16.31
2022-09-28T15:30:50.496Z,16.23
2022-09-28T15:33:25.810Z,16.15
2022-09-28T15:36:20.159Z,16.07
2022-09-28T15:38:53.804Z,16.00
2022-09-28T15:41:21.523Z,15.94
2022-09-28T15:44:05.608Z,15.89
2022-09-28T15:46:32.378Z,15.84
2022-09-28T15:48:59.274Z,15.80
2022-09-28T15:51:28.141Z,15.77
2022-09-28T15:54:00.925Z,15.74
2022-09-28T15:56:28.875Z,15.73
2022-09-28T15:59:14.795Z,15.71
2022-09-28T16:01:43.774Z,15.67
2022-09-28T16:04:32.252Z,15.64
2022-09-28T16:07:17.328Z,15.61
2022-09-28T16:09:54.535Z,15.58
2022-09-28T16:12:21.680Z,15.52
2022-09-28T16:14:53.626Z,15.48
2022-09-28T16:17:31.014Z,15.43
2022-09-28T16:19:58.270Z,15.38
2022-09-28T16:22:28.690Z,15.34
2022-09-28T16:24:57.884Z,15.30
2022-09-28T16:27:54.991Z,15.29
2022-09-28T16:30:29.207Z,15.24
2022-09-28T16:32:57.290Z,15.21
2022-09-28T16:35:29.560Z,15.16
2022-09-28T16:38:12.401Z,15.13
2022-09-28T16:40:44.242Z,15.11
2022-09-28T16:43:28.256Z,15.07
2022-09-28T16:45:56.854Z,15.04
2022-09-28T16:48:32.276Z,15.01
2022-09-28T16:50:59.186Z,14.98
2022-09-28T16:53:26.691Z,14.96
2022-09-28T16:55:53.200Z,14.93
2022-09-28T16:58:20.009Z,14.91
2022-09-28T17:00:46.696Z,14.90
2022-09-28T17:03:16.142Z,14.88
2022-09-28T17:05:44.681Z,14.86
2022-09-28T17:08:14.993Z,14.82
2022-09-28T17:13:45.281Z,14.76
2022-09-28T17:16:13.590Z,14.74
2022-09-28T17:18:40.280Z,14.73
2022-09-28T17:21:12.112Z,14.72
2022-09-28T17:23:39.309Z,14.72
2022-09-28T17:26:06.404Z,14.70
2022-09-28T17:28:36.774Z,14.68
2022-09-28T17:31:05.019Z,14.69
2022-09-28T17:33:32.020Z,14.71
2022-09-28T17:36:03.686Z,14.71
2022-09-28T17:38:30.847Z,14.70
2022-09-28T17:40:57.764Z,14.71
2022-09-28T17:43:24.427Z,14.70
2022-09-28T17:45:51.936Z,14.69
2022-09-28T17:48:20.286Z,14.68
2022-09-28T17:50:47.027Z,14.69
2022-09-28T17:53:14.479Z,14.68
2022-09-28T17:55:41.431Z,14.67
2022-09-28T17:58:19.256Z,14.65
2022-09-28T18:00:48.190Z,14.62
2022-09-28T18:03:18.397Z,14.57
2022-09-28T18:05:45.622Z,14.56
2022-09-28T18:08:15.778Z,14.56
2022-09-28T18:10:42.697Z,14.53
2022-09-28T18:13:10.058Z,14.50
2022-09-28T18:15:37.114Z,14.46
2022-09-28T18:18:04.297Z,14.44
2022-09-28T18:20:31.634Z,14.46
2022-09-28T18:22:58.276Z,14.45
2022-09-28T18:25:25.225Z,14.43
2022-09-28T18:27:51.970Z,14.43
2022-09-28T18:30:18.609Z,14.41
2022-09-28T18:32:45.601Z,14.38
2022-09-28T18:35:12.312Z,14.38
2022-09-28T18:37:40.684Z,14.37
2022-09-28T18:40:09.978Z,14.37
2022-09-28T18:42:36.635Z,14.38
2022-09-28T18:45:08.547Z,14.38
2022-09-28T18:47:35.251Z,14.35
2022-09-28T18:50:02.101Z,14.33
2022-09-28T18:52:28.735Z,14.28
2022-09-28T18:54:56.216Z,14.25
2022-09-28T18:57:22.943Z,14.23
2022-09-28T18:59:49.992Z,14.18
2022-09-28T19:02:16.731Z,14.14
2022-09-28T19:04:43.479Z,14.12
2022-09-28T19:07:10.125Z,14.09
2022-09-28T19:09:36.865Z,14.07
2022-09-28T19:12:03.607Z,14.03
2022-09-28T19:14:30.349Z,13.98
2022-09-28T19:16:57.197Z,13.98
2022-09-28T19:19:23.839Z,13.98
2022-09-28T19:21:50.607Z,13.97
2022-09-28T19:24:19.076Z,13.95
2022-09-28T19:26:46.022Z,13.93
2022-09-28T19:29:13.189Z,13.91
2022-09-28T19:31:40.842Z,13.86
2022-09-28T19:34:10.466Z,13.83
2022-09-28T19:36:40.075Z,13.83
2022-09-28T19:39:06.935Z,13.84
2022-09-28T19:41:39.092Z,13.86
2022-09-28T19:44:21.912Z,13.87
2022-09-28T19:46:48.755Z,13.87
2022-09-28T19:49:16.654Z,13.88
2022-09-28T19:52:01.647Z,13.88
2022-09-28T19:54:35.515Z,13.88
2022-09-28T19:57:03.992Z,13.89
2022-09-28T19:59:30.438Z,13.89
2022-09-28T20:01:57.219Z,13.91
2022-09-28T20:04:23.823Z,13.90
2022-09-28T20:06:50.568Z,13.87
2022-09-28T20:09:17.112Z,13.84
2022-09-28T20:11:43.631Z,13.81
2022-09-28T20:14:10.389Z,13.79
2022-09-28T20:16:36.927Z,13.79
2022-09-28T20:19:04.098Z,13.79
2022-09-28T20:21:31.147Z,13.79
2022-09-28T20:23:57.771Z,13.76
2022-09-28T20:26:26.176Z,13.74
2022-09-28T20:28:53.329Z,13.74
2022-09-28T20:31:22.549Z,13.71
2022-09-28T20:33:50.197Z,13.66
2022-09-28T20:36:19.905Z,13.60
2022-09-28T20:38:52.064Z,13.53
2022-09-28T20:41:22.109Z,13.43
2022-09-28T20:43:54.209Z,13.35
2022-09-28T20:46:21.038Z,13.28
2022-09-28T20:48:51.051Z,13.22
2022-09-28T20:51:22.097Z,13.16
2022-09-28T20:53:56.932Z,13.10
2022-09-28T20:56:29.074Z,13.01
2022-09-28T20:58:56.573Z,12.93
2022-09-28T21:01:25.882Z,12.89
2022-09-28T21:03:53.418Z,12.92
2022-09-28T21:06:22.082Z,12.91
2022-09-28T21:08:48.775Z,12.87
2022-09-28T21:11:17.700Z,12.82
2022-09-28T21:13:45.337Z,12.80
2022-09-28T21:16:14.730Z,12.80
2022-09-28T21:18:42.174Z,12.83
2022-09-28T21:21:14.469Z,12.84
2022-09-28T21:23:41.108Z,12.84
2022-09-28T21:26:10.483Z,12.85
2022-09-28T21:28:38.602Z,12.87
2022-09-28T21:31:07.489Z,12.89
2022-09-28T21:33:34.507Z,12.96
2022-09-28T21:36:06.821Z,13.01
2022-09-28T21:38:34.489Z,13.02
2022-09-28T21:41:01.737Z,13.01
2022-09-28T21:43:30.618Z,13.05
2022-09-28T21:45:57.940Z,13.10
2022-09-28T21:48:27.758Z,13.15
2022-09-28T21:50:59.889Z,13.20
2022-09-28T21:53:32.293Z,13.26
2022-09-28T21:56:00.659Z,13.30
2022-09-28T21:58:30.067Z,13.32
2022-09-28T22:01:15.105Z,13.35
2022-09-28T22:03:43.258Z,13.37
2022-09-28T22:06:11.276Z,13.41
2022-09-28T22:08:38.782Z,13.44
2022-09-28T22:11:12.067Z,13.46
2022-09-28T22:13:45.067Z,13.47
2022-09-28T22:16:14.250Z,13.48
2022-09-28T22:18:41.494Z,13.49
2022-09-28T22:21:12.533Z,13.49
2022-09-28T22:23:39.986Z,13.49
2022-09-28T22:26:08.112Z,13.48
2022-09-28T22:28:34.867Z,13.49
2022-09-28T22:31:01.686Z,13.49
2022-09-28T22:33:29.164Z,13.49
2022-09-28T22:35:55.809Z,13.49
2022-09-28T22:38:24.367Z,13.48
2022-09-28T22:40:52.971Z,13.47
2022-09-28T22:43:19.766Z,13.46
2022-09-28T22:45:47.092Z,13.48
2022-09-28T22:48:13.603Z,13.51
2022-09-28T22:50:52.467Z,13.52
2022-09-28T22:53:19.629Z,13.53
2022-09-28T22:55:52.308Z,13.54
2022-09-28T22:58:18.882Z,13.53
2022-09-28T23:00:45.460Z,13.53
2022-09-28T23:03:12.442Z,13.52
2022-09-28T23:05:39.261Z,13.51
2022-09-28T23:08:05.857Z,13.49
2022-09-28T23:10:32.579Z,13.50
2022-09-28T23:12:59.324Z,13.52
2022-09-28T23:15:25.827Z,13.52
2022-09-28T23:17:53.330Z,13.52
2022-09-28T23:20:20.945Z,13.51
2022-09-28T23:22:49.288Z,13.52
2022-09-28T23:25:17.882Z,13.52
2022-09-28T23:27:50.081Z,13.51
2022-09-28T23:30:18.482Z,13.50
2022-09-28T23:32:45.494Z,13.48
2022-09-28T23:35:13.287Z,13.48
2022-09-28T23:37:40.387Z,13.47
2022-09-28T23:40:07.541Z,13.46
2022-09-28T23:42:34.979Z,13.44
2022-09-28T23:45:02.168Z,13.43
2022-09-28T23:47:29.355Z,13.42
2022-09-28T23:49:55.958Z,13.41
2022-09-28T23:52:23.103Z,13.44
2022-09-28T23:54:49.661Z,13.45
2022-09-28T23:57:16.141Z,13.45
2022-09-28T23:59:42.639Z,13.43
